createdAt,value
2023-05-02T00:00:49.952Z,49.39
2023-05-02T00:01:50.024Z,49.47
2023-05-02T00:02:50.198Z,49.41
2023-05-02T00:03:50.112Z,49.30
2023-05-02T00:04:50.015Z,49.32
2023-05-02T00:05:50.010Z,49.27
2023-05-02T00:06:50.143Z,49.24
2023-05-02T00:07:50.060Z,49.22
2023-05-02T00:08:50.064Z,49.13
2023-05-02T00:09:50.127Z,49.12
2023-05-02T00:10:50.118Z,49.12
2023-05-02T00:11:50.139Z,49.15
2023-05-02T00:12:50.174Z,49.17
2023-05-02T00:13:50.222Z,49.27
2023-05-02T00:14:50.220Z,49.39
2023-05-02T00:15:50.267Z,49.42
2023-05-02T00:16:50.247Z,49.41
2023-05-02T00:17:50.282Z,49.48
2023-05-02T00:18:50.275Z,49.50
2023-05-02T00:19:50.270Z,49.62
2023-05-02T00:20:50.266Z,49.60
2023-05-02T00:21:50.331Z,49.63
2023-05-02T00:22:50.300Z,49.68
2023-05-02T00:23:50.340Z,49.67
2023-05-02T00:24:50.329Z,49.74
2023-05-02T00:25:50.371Z,49.82
2023-05-02T00:26:50.375Z,49.87
2023-05-02T00:27:50.408Z,49.97
2023-05-02T00:28:50.430Z,50.07
2023-05-02T00:29:50.448Z,50.08
2023-05-02T00:30:50.474Z,50.12
2023-05-02T00:31:50.467Z,50.06
2023-05-02T00:32:50.601Z,50.01
2023-05-02T00:33:50.509Z,50.14
2023-05-02T00:34:50.529Z,50.19
2023-05-02T00:35:50.533Z,50.11
2023-05-02T00:36:50.575Z,50.16
2023-05-02T00:37:50.632Z,50.21
2023-05-02T00:38:50.643Z,50.21
2023-05-02T00:39:50.657Z,50.33
2023-05-02T00:40:50.666Z,50.25
2023-05-02T00:41:50.670Z,50.26
2023-05-02T00:42:50.696Z,50.36
2023-05-02T00:43:50.714Z,50.45
2023-05-02T00:44:50.724Z,50.36
2023-05-02T00:45:50.728Z,50.35
2023-05-02T00:46:50.755Z,50.21
2023-05-02T00:47:50.784Z,50.15
2023-05-02T00:48:50.819Z,50.18
2023-05-02T00:49:50.761Z,50.01
2023-05-02T00:50:50.732Z,49.92
2023-05-02T00:51:50.765Z,49.94
2023-05-02T00:52:50.775Z,49.86
2023-05-02T00:53:50.797Z,49.75
2023-05-02T00:54:50.841Z,49.47
2023-05-02T00:55:50.835Z,49.45
2023-05-02T00:56:50.841Z,49.44
2023-05-02T00:57:50.852Z,49.45
2023-05-02T00:58:50.857Z,49.64
2023-05-02T00:59:50.851Z,49.73
2023-05-02T01:00:50.866Z,49.61
2023-05-02T01:01:50.970Z,49.64
2023-05-02T01:02:51.042Z,49.73
2023-05-02T01:03:51.133Z,49.73
2023-05-02T01:04:50.950Z,49.81
2023-05-02T01:05:50.921Z,49.82
2023-05-02T01:06:51.022Z,49.86
2023-05-02T01:07:50.983Z,49.89
2023-05-02T01:08:51.008Z,49.92
2023-05-02T01:09:51.028Z,49.96
2023-05-02T01:10:51.013Z,50.04
2023-05-02T01:11:51.040Z,50.04
2023-05-02T01:12:51.069Z,50.12
2023-05-02T01:13:51.091Z,50.14
2023-05-02T01:14:51.138Z,50.20
2023-05-02T01:15:51.234Z,50.16
2023-05-02T01:16:51.159Z,50.17
2023-05-02T01:17:51.253Z,50.16
2023-05-02T01:18:51.201Z,50.17
2023-05-02T01:19:51.260Z,50.17
2023-05-02T01:20:51.243Z,50.13
2023-05-02T01:21:51.261Z,50.11
2023-05-02T01:22:51.277Z,49.97
2023-05-02T01:23:51.282Z,50.01
2023-05-02T01:24:51.325Z,50.07
2023-05-02T01:25:51.352Z,50.09
2023-05-02T01:26:51.363Z,50.02
2023-05-02T01:27:51.427Z,49.97
2023-05-02T01:28:51.444Z,49.98
2023-05-02T01:29:51.503Z,49.86
2023-05-02T01:30:51.490Z,49.71
2023-05-02T01:31:52.481Z,49.77
2023-05-02T01:32:51.641Z,49.81
2023-05-02T01:33:51.575Z,49.77
2023-05-02T01:34:51.647Z,49.71
2023-05-02T01:35:51.671Z,49.76
2023-05-02T01:36:51.684Z,49.74
2023-05-02T01:37:51.707Z,49.72
2023-05-02T01:38:51.734Z,49.76
2023-05-02T01:39:51.770Z,49.76
2023-05-02T01:40:51.799Z,49.70
2023-05-02T01:41:51.803Z,49.70
2023-05-02T01:42:51.811Z,49.71
2023-05-02T01:43:51.858Z,49.65
2023-05-02T01:44:51.900Z,49.62
2023-05-02T01:45:51.931Z,49.57
2023-05-02T01:46:52.032Z,49.56
2023-05-02T01:47:51.958Z,49.57
2023-05-02T01:48:51.986Z,49.63
2023-05-02T01:49:52.021Z,49.72
2023-05-02T01:50:52.035Z,49.57
2023-05-02T01:51:52.086Z,49.64
2023-05-02T01:52:52.123Z,49.63
2023-05-02T01:53:52.129Z,49.60
2023-05-02T01:54:52.167Z,49.58
2023-05-02T01:55:52.186Z,49.53
2023-05-02T01:56:52.213Z,49.48
2023-05-02T01:57:52.216Z,49.48
2023-05-02T01:58:52.261Z,49.46
2023-05-02T01:59:52.303Z,49.43
2023-05-02T02:00:52.426Z,49.45
2023-05-02T02:01:52.368Z,49.49
2023-05-02T02:02:52.427Z,49.50
2023-05-02T02:03:52.499Z,49.45
2023-05-02T02:04:52.504Z,49.43
2023-05-02T02:05:52.523Z,49.44
2023-05-02T02:06:52.664Z,49.43
2023-05-02T02:07:52.558Z,49.46
2023-05-02T02:08:52.589Z,49.43
2023-05-02T02:09:52.612Z,49.41
2023-05-02T02:10:52.645Z,49.37
2023-05-02T02:11:52.682Z,49.33
2023-05-02T02:12:52.696Z,49.35
2023-05-02T02:13:52.756Z,49.36
2023-05-02T02:14:52.779Z,49.39
2023-05-02T02:15:52.813Z,49.34
2023-05-02T02:16:52.880Z,49.36
2023-05-02T02:17:52.929Z,49.31
2023-05-02T02:18:52.925Z,49.35
2023-05-02T02:19:52.974Z,49.39
2023-05-02T02:20:52.989Z,49.31
2023-05-02T02:21:53.073Z,49.32
2023-05-02T02:22:53.075Z,49.32
2023-05-02T02:23:53.123Z,49.32
2023-05-02T02:24:54.400Z,49.28
2023-05-02T02:25:53.199Z,49.31
2023-05-02T02:26:53.239Z,49.36
2023-05-02T02:27:53.274Z,49.39
2023-05-02T02:28:53.315Z,49.49
2023-05-02T02:29:53.394Z,49.56
2023-05-02T02:30:53.429Z,49.56
2023-05-02T02:31:53.418Z,49.60
2023-05-02T02:32:53.498Z,49.59
2023-05-02T02:33:53.441Z,49.61
2023-05-02T02:34:53.509Z,49.64
2023-05-02T02:35:53.536Z,49.60
2023-05-02T02:36:53.606Z,49.67
2023-05-02T02:37:53.648Z,49.67
2023-05-02T02:38:53.659Z,49.74
2023-05-02T02:39:53.702Z,49.75
2023-05-02T02:40:53.783Z,49.83
2023-05-02T02:41:53.778Z,49.94
2023-05-02T02:42:53.832Z,50.01
2023-05-02T02:43:53.878Z,49.95
2023-05-02T02:44:53.902Z,49.98
2023-05-02T02:45:53.996Z,50.01
2023-05-02T02:46:53.982Z,50.03
2023-05-02T02:47:54.116Z,50.06
2023-05-02T02:48:54.090Z,50.14
2023-05-02T02:49:54.104Z,50.16
2023-05-02T02:50:54.144Z,50.17
2023-05-02T02:51:54.212Z,50.16
2023-05-02T02:52:54.234Z,50.21
2023-05-02T02:53:54.270Z,50.22
2023-05-02T02:54:54.331Z,50.23
2023-05-02T02:55:54.385Z,50.29
2023-05-02T02:56:54.409Z,50.31
2023-05-02T02:57:54.469Z,50.32
2023-05-02T02:58:54.485Z,50.30
2023-05-02T02:59:54.564Z,50.42
2023-05-02T03:00:54.605Z,50.46
2023-05-02T03:01:54.658Z,50.45
2023-05-02T03:02:54.704Z,50.48
2023-05-02T03:03:54.856Z,50.56
2023-05-02T03:04:54.792Z,50.59
2023-05-02T03:05:54.818Z,50.73
2023-05-02T03:06:54.942Z,50.64
2023-05-02T03:07:54.908Z,50.66
2023-05-02T03:08:54.941Z,50.63
2023-05-02T03:09:55.028Z,50.68
2023-05-02T03:10:55.056Z,50.69
2023-05-02T03:11:55.108Z,50.71
2023-05-02T03:12:55.161Z,50.68
2023-05-02T03:13:55.170Z,50.66
2023-05-02T03:14:55.230Z,50.69
2023-05-02T03:15:55.378Z,50.68
2023-05-02T03:16:55.299Z,50.51
2023-05-02T03:17:55.394Z,50.53
2023-05-02T03:18:55.370Z,50.54
2023-05-02T03:19:55.459Z,50.49
2023-05-02T03:20:55.437Z,50.53
2023-05-02T03:21:55.515Z,50.50
2023-05-02T03:22:55.529Z,50.44
2023-05-02T03:23:55.592Z,50.35
2023-05-02T03:24:55.607Z,50.27
2023-05-02T03:25:55.646Z,50.21
2023-05-02T03:26:55.708Z,50.13
2023-05-02T03:27:55.702Z,50.08
2023-05-02T03:28:55.769Z,50.10
2023-05-02T03:29:55.851Z,50.09
2023-05-02T03:30:55.808Z,50.01
2023-05-02T03:31:55.944Z,50.03
2023-05-02T03:32:55.938Z,50.07
2023-05-02T03:33:55.896Z,50.11
2023-05-02T03:34:55.957Z,50.20
2023-05-02T03:35:55.982Z,50.16
2023-05-02T03:36:56.005Z,50.15
2023-05-02T03:37:56.020Z,50.05
2023-05-02T03:38:56.059Z,50.04
2023-05-02T03:39:56.065Z,50.13
2023-05-02T03:40:56.110Z,50.11
2023-05-02T03:41:56.139Z,50.24
2023-05-02T03:42:56.179Z,50.22
2023-05-02T03:43:56.217Z,50.19
2023-05-02T03:44:56.253Z,50.15
2023-05-02T03:45:56.280Z,50.11
2023-05-02T03:46:56.371Z,50.15
2023-05-02T03:47:56.395Z,50.02
2023-05-02T03:48:56.355Z,50.12
2023-05-02T03:49:56.397Z,50.13
2023-05-02T03:50:56.440Z,50.29
2023-05-02T03:51:56.458Z,50.21
2023-05-02T03:52:56.630Z,50.32
2023-05-02T03:53:56.551Z,50.44
2023-05-02T03:54:56.616Z,50.43
2023-05-02T03:55:56.663Z,50.51
2023-05-02T03:56:56.697Z,50.41
2023-05-02T03:57:56.757Z,50.55
2023-05-02T03:58:56.838Z,50.66
2023-05-02T03:59:56.960Z,50.56
2023-05-02T04:00:56.927Z,50.49
2023-05-02T04:01:56.998Z,50.48
2023-05-02T04:02:57.094Z,50.46
2023-05-02T04:03:57.204Z,50.54
2023-05-02T04:04:57.112Z,50.60
2023-05-02T04:05:57.171Z,50.37
2023-05-02T04:06:57.198Z,50.26
2023-05-02T04:07:57.251Z,50.18
2023-05-02T04:08:57.270Z,50.20
2023-05-02T04:09:57.445Z,50.24
2023-05-02T04:10:57.385Z,50.19
2023-05-02T04:11:57.449Z,50.14
2023-05-02T04:12:57.468Z,50.14
2023-05-02T04:13:57.487Z,50.20
2023-05-02T04:14:57.564Z,50.24
2023-05-02T04:15:57.563Z,50.22
2023-05-02T04:16:57.657Z,50.18
2023-05-02T04:17:57.645Z,50.30
2023-05-02T04:18:57.725Z,50.48
2023-05-02T04:19:57.901Z,50.53
2023-05-02T04:20:57.772Z,50.46
2023-05-02T04:21:57.821Z,50.36
2023-05-02T04:22:57.825Z,50.35
2023-05-02T04:23:57.865Z,50.35
2023-05-02T04:24:58.051Z,50.37
2023-05-02T04:25:57.976Z,50.38
2023-05-02T04:26:58.002Z,50.39
2023-05-02T04:27:58.060Z,50.41
2023-05-02T04:28:58.072Z,50.41
2023-05-02T04:29:58.610Z,50.33
2023-05-02T04:30:58.184Z,50.24
2023-05-02T04:31:58.194Z,50.21
2023-05-02T04:32:58.270Z,50.20
2023-05-02T04:33:58.303Z,50.20
2023-05-02T04:34:58.309Z,50.17
2023-05-02T04:35:58.367Z,50.13
2023-05-02T04:36:58.371Z,50.18
2023-05-02T04:37:58.428Z,50.20
2023-05-02T04:38:58.448Z,50.26
2023-05-02T04:39:58.590Z,50.17
2023-05-02T04:40:58.518Z,50.18
2023-05-02T04:41:58.546Z,50.17
2023-05-02T04:42:58.589Z,50.19
2023-05-02T04:43:58.638Z,50.27
2023-05-02T04:44:58.652Z,50.25
2023-05-02T04:45:58.701Z,50.27
2023-05-02T04:46:58.692Z,50.31
2023-05-02T04:47:58.768Z,50.27
2023-05-02T04:48:58.805Z,50.29
2023-05-02T04:49:58.995Z,50.30
2023-05-02T04:50:58.873Z,50.24
2023-05-02T04:51:58.921Z,50.15
2023-05-02T04:52:58.921Z,50.11
2023-05-02T04:53:58.999Z,50.11
2023-05-02T04:54:59.094Z,50.11
2023-05-02T04:55:59.092Z,50.18
2023-05-02T04:56:59.134Z,50.28
2023-05-02T04:57:59.186Z,50.19
2023-05-02T04:58:59.254Z,50.16
2023-05-02T04:59:59.548Z,50.17
2023-05-02T05:00:59.346Z,50.25
2023-05-02T05:01:59.485Z,50.30
2023-05-02T05:03:01.723Z,50.22
2023-05-02T05:03:59.781Z,50.31
2023-05-02T05:04:59.759Z,50.36
2023-05-02T05:05:59.835Z,50.27
2023-05-02T05:06:59.853Z,50.28
2023-05-02T05:07:59.950Z,50.30
2023-05-02T05:08:59.929Z,50.36
2023-05-02T05:10:00.508Z,50.41
2023-05-02T05:11:00.024Z,50.45
2023-05-02T05:12:00.111Z,50.45
2023-05-02T05:13:00.200Z,50.46
2023-05-02T05:14:00.159Z,50.32
2023-05-02T05:15:00.218Z,50.35
2023-05-02T05:16:00.310Z,50.36
2023-05-02T05:17:00.281Z,50.36
2023-05-02T05:18:00.351Z,50.26
2023-05-02T05:19:00.350Z,50.26
2023-05-02T05:20:00.649Z,50.22
2023-05-02T05:21:00.418Z,50.16
2023-05-02T05:22:00.449Z,50.17
2023-05-02T05:23:00.446Z,50.17
2023-05-02T05:24:00.520Z,50.13
2023-05-02T05:25:00.525Z,50.05
2023-05-02T05:26:00.520Z,50.01
2023-05-02T05:27:00.556Z,50.02
2023-05-02T05:28:00.598Z,50.05
2023-05-02T05:29:00.600Z,50.00
2023-05-02T05:30:00.965Z,50.01
2023-05-02T05:31:00.618Z,50.01
2023-05-02T05:32:00.723Z,49.99
2023-05-02T05:33:00.762Z,50.01
2023-05-02T05:34:00.776Z,50.01
2023-05-02T05:35:00.711Z,49.99
2023-05-02T05:36:00.748Z,50.04
2023-05-02T05:37:00.738Z,50.07
2023-05-02T05:38:01.006Z,49.92
2023-05-02T05:39:00.787Z,49.80
2023-05-02T05:40:01.083Z,49.69
2023-05-02T05:41:01.528Z,49.46
2023-05-02T05:42:00.924Z,49.58
2023-05-02T05:43:00.971Z,49.43
2023-05-02T05:44:00.977Z,49.66
2023-05-02T05:45:01.011Z,49.56
2023-05-02T05:46:00.969Z,49.75
2023-05-02T05:47:01.056Z,50.15
2023-05-02T05:48:01.023Z,49.97
2023-05-02T05:49:01.037Z,49.85
2023-05-02T05:50:01.389Z,50.99
2023-05-02T05:51:01.133Z,50.82
2023-05-02T05:52:01.182Z,50.21
2023-05-02T05:53:01.227Z,50.65
2023-05-02T05:54:01.260Z,50.39
2023-05-02T05:55:01.868Z,51.29
2023-05-02T05:56:01.343Z,52.83
2023-05-02T05:57:01.424Z,52.06
2023-05-02T05:58:01.394Z,52.44
2023-05-02T05:59:01.420Z,52.83
2023-05-02T06:00:01.820Z,52.07
2023-05-02T06:01:01.666Z,52.19
2023-05-02T06:02:01.495Z,51.90
2023-05-02T06:03:01.672Z,51.71
2023-05-02T06:04:01.643Z,52.12
2023-05-02T06:05:02.113Z,51.80
2023-05-02T06:06:01.842Z,51.65
2023-05-02T06:07:01.721Z,51.68
2023-05-02T06:08:01.752Z,51.96
2023-05-02T06:09:01.817Z,51.82
2023-05-02T06:10:02.104Z,51.41
2023-05-02T06:11:01.814Z,51.95
2023-05-02T06:12:01.849Z,52.43
2023-05-02T06:13:01.827Z,51.79
2023-05-02T06:14:01.869Z,51.34
2023-05-02T06:15:01.918Z,51.60
2023-05-02T06:16:01.998Z,51.40
2023-05-02T06:17:02.017Z,51.63
2023-05-02T06:18:02.005Z,51.61
2023-05-02T06:19:01.964Z,51.56
2023-05-02T06:20:02.699Z,51.43
2023-05-02T06:21:02.005Z,51.43
2023-05-02T06:22:02.058Z,51.37
2023-05-02T06:23:02.078Z,51.30
2023-05-02T06:24:02.156Z,51.53
2023-05-02T06:25:02.185Z,51.77
2023-05-02T06:26:02.238Z,51.61
2023-05-02T06:27:02.307Z,51.78
2023-05-02T06:28:02.307Z,51.88
2023-05-02T06:29:02.385Z,52.45
2023-05-02T06:30:02.837Z,51.89
2023-05-02T06:31:02.575Z,51.71
2023-05-02T06:32:02.604Z,51.64
2023-05-02T06:33:02.626Z,51.63
2023-05-02T06:34:02.622Z,51.61
2023-05-02T06:35:02.698Z,51.81
2023-05-02T06:36:02.670Z,51.91
2023-05-02T06:37:02.685Z,52.60
2023-05-02T06:38:02.738Z,52.35
2023-05-02T06:39:02.765Z,52.50
2023-05-02T06:40:03.302Z,52.13
2023-05-02T06:41:02.867Z,51.95
2023-05-02T06:42:02.928Z,52.13
2023-05-02T06:43:02.905Z,52.18
2023-05-02T06:44:02.897Z,52.14
2023-05-02T06:45:02.984Z,52.79
2023-05-02T06:46:02.937Z,51.72
2023-05-02T06:47:03.057Z,51.69
2023-05-02T06:48:03.017Z,51.67
2023-05-02T06:49:03.180Z,51.78
2023-05-02T06:50:03.215Z,51.87
2023-05-02T06:51:03.095Z,51.65
2023-05-02T06:52:03.129Z,51.69
2023-05-02T06:53:03.116Z,51.72
2023-05-02T06:54:03.157Z,51.73
2023-05-02T06:55:03.142Z,51.24
2023-05-02T06:56:03.231Z,51.07
2023-05-02T06:57:03.213Z,51.15
2023-05-02T06:58:03.240Z,51.00
2023-05-02T06:59:03.333Z,51.40
2023-05-02T07:00:03.866Z,51.53
2023-05-02T07:01:03.436Z,51.50
2023-05-02T07:02:05.444Z,51.48
2023-05-02T07:03:05.175Z,51.51
2023-05-02T07:04:03.489Z,51.54
2023-05-02T07:05:03.473Z,51.56
2023-05-02T07:06:03.524Z,51.59
2023-05-02T07:07:03.511Z,51.59
2023-05-02T07:08:03.564Z,51.70
2023-05-02T07:09:03.564Z,51.69
2023-05-02T07:10:04.078Z,51.76
2023-05-02T07:11:03.637Z,51.76
2023-05-02T07:12:06.032Z,51.77
2023-05-02T07:13:03.602Z,51.79
2023-05-02T07:14:03.616Z,51.83
2023-05-02T07:15:03.634Z,51.81
2023-05-02T07:16:03.658Z,51.84
2023-05-02T07:17:03.667Z,51.93
2023-05-02T07:18:03.655Z,51.96
2023-05-02T07:19:03.595Z,51.92
2023-05-02T07:20:03.931Z,52.02
2023-05-02T07:21:03.552Z,52.03
2023-05-02T07:22:03.568Z,52.29
2023-05-02T07:23:03.562Z,52.16
2023-05-02T07:24:03.535Z,52.06
2023-05-02T07:25:03.576Z,52.15
2023-05-02T07:26:06.129Z,52.11
2023-05-02T07:27:03.518Z,52.16
2023-05-02T07:28:03.546Z,52.17
2023-05-02T07:29:03.548Z,52.20
2023-05-02T07:30:03.775Z,52.14
2023-05-02T07:31:03.494Z,52.23
2023-05-02T07:32:03.546Z,52.26
2023-05-02T07:33:03.486Z,52.23
2023-05-02T07:34:03.496Z,52.27
2023-05-02T07:35:03.465Z,52.25
2023-05-02T07:36:03.450Z,52.24
2023-05-02T07:37:03.459Z,52.25
2023-05-02T07:38:03.449Z,52.27
2023-05-02T07:39:03.431Z,52.27
2023-05-02T07:40:03.782Z,52.28
2023-05-02T07:41:03.429Z,52.42
2023-05-02T07:42:03.398Z,52.51
2023-05-02T07:43:03.423Z,52.22
2023-05-02T07:44:03.874Z,52.50
2023-05-02T07:45:03.567Z,52.28
2023-05-02T07:46:03.542Z,50.44
2023-05-02T07:47:03.382Z,48.85
2023-05-02T07:48:03.402Z,49.04
2023-05-02T07:49:03.756Z,48.50
2023-05-02T07:50:03.761Z,48.58
2023-05-02T07:51:03.353Z,49.05
2023-05-02T07:52:03.333Z,49.39
2023-05-02T07:53:03.385Z,49.44
2023-05-02T07:54:03.345Z,49.91
2023-05-02T07:55:03.330Z,49.90
2023-05-02T07:56:03.307Z,49.83
2023-05-02T07:57:03.363Z,49.81
2023-05-02T07:58:03.343Z,50.00
2023-05-02T07:59:05.417Z,49.91
2023-05-02T08:00:03.548Z,49.93
2023-05-02T08:01:03.269Z,49.99
2023-05-02T08:02:03.265Z,49.97
2023-05-02T08:03:03.427Z,49.98
2023-05-02T08:04:03.411Z,49.91
2023-05-02T08:05:03.634Z,49.93
2023-05-02T08:06:03.410Z,50.25
2023-05-02T08:07:03.408Z,50.08
2023-05-02T08:08:03.433Z,50.07
2023-05-02T08:09:03.460Z,49.93
2023-05-02T08:10:03.809Z,50.02
2023-05-02T08:11:03.499Z,50.05
2023-05-02T08:12:03.537Z,50.31
2023-05-02T08:13:03.524Z,50.26
2023-05-02T08:14:03.554Z,50.38
2023-05-02T08:15:03.573Z,50.94
2023-05-02T08:16:03.623Z,50.56
2023-05-02T08:17:03.566Z,50.62
2023-05-02T08:18:03.617Z,50.50
2023-05-02T08:19:03.617Z,50.59
2023-05-02T08:20:03.667Z,50.80
2023-05-02T08:21:03.573Z,50.67
2023-05-02T08:22:03.577Z,52.19
2023-05-02T08:23:03.624Z,51.15
2023-05-02T08:24:03.670Z,50.79
2023-05-02T08:25:03.679Z,50.96
2023-05-02T08:26:03.634Z,50.82
2023-05-02T08:27:03.677Z,50.80
2023-05-02T08:28:03.693Z,50.66
2023-05-02T08:29:03.664Z,50.83
2023-05-02T08:30:03.880Z,50.77
2023-05-02T08:31:03.741Z,50.77
2023-05-02T08:32:03.808Z,50.65
2023-05-02T08:33:03.780Z,50.45
2023-05-02T08:34:03.756Z,50.79
2023-05-02T08:35:03.812Z,50.79
2023-05-02T08:36:03.795Z,50.71
2023-05-02T08:37:03.787Z,50.81
2023-05-02T08:38:03.763Z,51.08
2023-05-02T08:39:03.813Z,51.06
2023-05-02T08:40:04.047Z,50.44
2023-05-02T08:41:03.834Z,50.32
2023-05-02T08:42:03.835Z,50.28
2023-05-02T08:43:03.819Z,50.31
2023-05-02T08:44:03.826Z,50.30
2023-05-02T08:45:04.092Z,50.23
2023-05-02T08:46:03.853Z,50.20
2023-05-02T08:47:03.922Z,50.23
2023-05-02T08:48:03.900Z,50.31
2023-05-02T08:49:03.865Z,50.31
2023-05-02T08:50:04.063Z,50.02
2023-05-02T08:51:04.123Z,49.08
2023-05-02T08:52:04.048Z,48.14
2023-05-02T08:53:03.990Z,47.93
2023-05-02T08:54:04.054Z,47.80
2023-05-02T08:55:04.364Z,47.73
2023-05-02T08:56:04.113Z,48.57
2023-05-02T08:57:04.155Z,48.70
2023-05-02T08:58:04.245Z,48.90
2023-05-02T08:59:04.272Z,49.63
2023-05-02T09:00:04.301Z,49.94
2023-05-02T09:01:04.391Z,50.54
2023-05-02T09:02:04.414Z,50.75
2023-05-02T09:03:04.446Z,51.66
2023-05-02T09:04:04.420Z,56.11
2023-05-02T09:05:06.147Z,56.48
2023-05-02T09:06:04.506Z,55.12
2023-05-02T09:07:04.520Z,52.73
2023-05-02T09:08:04.580Z,52.31
2023-05-02T09:09:04.622Z,52.27
2023-05-02T09:10:04.650Z,51.91
2023-05-02T09:11:04.716Z,52.36
2023-05-02T09:12:04.717Z,52.02
2023-05-02T09:13:04.784Z,52.03
2023-05-02T09:14:04.836Z,51.93
2023-05-02T09:15:04.843Z,52.13
2023-05-02T09:16:04.855Z,52.17
2023-05-02T09:17:04.955Z,52.49
2023-05-02T09:18:04.971Z,52.67
2023-05-02T09:19:04.932Z,52.90
2023-05-02T09:20:04.938Z,53.29
2023-05-02T09:21:05.084Z,53.34
2023-05-02T09:22:04.959Z,53.20
2023-05-02T09:23:04.960Z,53.43
2023-05-02T09:24:04.988Z,53.61
2023-05-02T09:25:05.002Z,53.67
2023-05-02T09:26:05.096Z,53.72
2023-05-02T09:27:05.086Z,53.80
2023-05-02T09:28:05.071Z,53.74
2023-05-02T09:29:05.053Z,53.00
2023-05-02T09:30:05.103Z,50.44
2023-05-02T09:31:05.114Z,48.70
2023-05-02T09:32:06.153Z,48.69
2023-05-02T09:33:05.269Z,49.86
2023-05-02T09:34:05.230Z,50.11
2023-05-02T09:35:05.268Z,50.50
2023-05-02T09:36:05.340Z,50.72
2023-05-02T09:37:05.425Z,50.54
2023-05-02T09:38:05.404Z,50.50
2023-05-02T09:39:05.478Z,50.50
2023-05-02T09:40:05.491Z,50.36
2023-05-02T09:41:05.684Z,49.81
2023-05-02T09:42:05.543Z,50.11
2023-05-02T09:43:05.575Z,49.83
2023-05-02T09:44:05.653Z,49.60
2023-05-02T09:45:05.570Z,49.78
2023-05-02T09:46:06.157Z,49.63
2023-05-02T09:47:05.651Z,49.80
2023-05-02T09:48:05.680Z,49.93
2023-05-02T09:49:05.712Z,50.04
2023-05-02T09:50:05.764Z,50.07
2023-05-02T09:51:05.743Z,50.05
2023-05-02T09:52:05.763Z,50.10
2023-05-02T09:53:06.097Z,50.14
2023-05-02T09:54:05.798Z,50.12
2023-05-02T09:55:05.845Z,50.14
2023-05-02T09:56:05.912Z,50.14
2023-05-02T09:57:05.919Z,49.78
2023-05-02T09:58:05.941Z,49.96
2023-05-02T09:59:05.992Z,50.02
2023-05-02T10:00:06.015Z,50.07
2023-05-02T10:01:06.147Z,50.00
2023-05-02T10:02:06.117Z,49.93
2023-05-02T10:03:06.221Z,49.84
2023-05-02T10:04:06.230Z,49.77
2023-05-02T10:05:06.240Z,49.78
2023-05-02T10:06:06.363Z,49.74
2023-05-02T10:07:06.387Z,49.67
2023-05-02T10:08:06.420Z,49.60
2023-05-02T10:09:06.445Z,49.53
2023-05-02T10:10:06.482Z,49.50
2023-05-02T10:11:06.534Z,49.48
2023-05-02T10:12:06.600Z,49.41
2023-05-02T10:13:06.644Z,49.36
2023-05-02T10:14:06.666Z,49.33
2023-05-02T10:15:06.782Z,49.27
2023-05-02T10:16:06.799Z,49.25
2023-05-02T10:17:06.850Z,49.14
2023-05-02T10:18:06.932Z,49.14
2023-05-02T10:19:06.913Z,49.08
2023-05-02T10:20:07.028Z,49.05
2023-05-02T10:21:07.023Z,49.05
2023-05-02T10:22:07.086Z,48.89
2023-05-02T10:23:07.123Z,48.89
2023-05-02T10:24:07.184Z,48.59
2023-05-02T10:25:07.223Z,48.67
2023-05-02T10:26:07.273Z,48.63
2023-05-02T10:27:07.293Z,48.74
2023-05-02T10:28:07.302Z,48.75
2023-05-02T10:29:07.371Z,48.64
2023-05-02T10:30:07.441Z,48.60
2023-05-02T10:31:07.504Z,48.54
2023-05-02T10:32:07.556Z,48.45
2023-05-02T10:33:07.620Z,47.91
2023-05-02T10:34:07.629Z,48.17
2023-05-02T10:35:07.667Z,48.21
2023-05-02T10:36:08.141Z,47.82
2023-05-02T10:37:07.764Z,47.63
2023-05-02T10:38:07.758Z,47.94
2023-05-02T10:39:07.804Z,49.28
2023-05-02T10:40:07.899Z,48.63
2023-05-02T10:41:08.111Z,47.90
2023-05-02T10:42:07.931Z,47.78
2023-05-02T10:43:07.959Z,47.42
2023-05-02T10:44:07.972Z,47.30
2023-05-02T10:45:07.983Z,46.97
2023-05-02T10:46:08.040Z,46.88
2023-05-02T10:47:08.130Z,47.02
2023-05-02T10:48:08.169Z,47.07
2023-05-02T10:49:08.201Z,47.36
2023-05-02T10:50:08.231Z,47.32
2023-05-02T10:51:08.304Z,47.33
2023-05-02T10:52:08.385Z,47.48
2023-05-02T10:53:08.406Z,47.54
2023-05-02T10:54:08.452Z,47.88
2023-05-02T10:55:08.509Z,47.80
2023-05-02T10:56:08.555Z,48.34
2023-05-02T10:57:08.626Z,48.06
2023-05-02T10:58:08.656Z,48.27
2023-05-02T10:59:08.689Z,48.42
2023-05-02T11:00:08.743Z,48.31
2023-05-02T11:01:08.824Z,48.44
2023-05-02T11:02:08.879Z,48.43
2023-05-02T11:03:09.055Z,48.29
2023-05-02T11:04:08.947Z,48.57
2023-05-02T11:05:08.958Z,49.32
2023-05-02T11:06:09.094Z,48.70
2023-05-02T11:07:09.014Z,48.98
2023-05-02T11:08:09.029Z,48.59
2023-05-02T11:09:09.092Z,48.67
2023-05-02T11:10:09.098Z,48.73
2023-05-02T11:11:09.138Z,48.57
2023-05-02T11:12:09.138Z,48.68
2023-05-02T11:13:09.205Z,48.62
2023-05-02T11:14:09.176Z,48.79
2023-05-02T11:15:09.223Z,48.21
2023-05-02T11:16:09.279Z,47.97
2023-05-02T11:17:09.292Z,47.31
2023-05-02T11:18:09.445Z,47.31
2023-05-02T11:19:09.358Z,46.40
2023-05-02T11:20:09.407Z,45.08
2023-05-02T11:21:09.648Z,45.11
2023-05-02T11:22:09.507Z,44.52
2023-05-02T11:23:09.541Z,44.61
2023-05-02T11:24:09.575Z,44.51
2023-05-02T11:25:09.619Z,44.86
2023-05-02T11:26:09.613Z,44.86
2023-05-02T11:27:09.614Z,43.29
2023-05-02T11:28:09.580Z,43.23
2023-05-02T11:29:09.605Z,43.14
2023-05-02T11:30:09.847Z,42.69
2023-05-02T11:31:10.313Z,43.56
2023-05-02T11:32:09.691Z,43.41
2023-05-02T11:33:10.172Z,43.74
2023-05-02T11:34:09.716Z,43.85
2023-05-02T11:35:09.690Z,43.64
2023-05-02T11:36:10.170Z,43.55
2023-05-02T11:37:09.745Z,43.77
2023-05-02T11:38:09.804Z,43.82
2023-05-02T11:39:09.795Z,43.84
2023-05-02T11:40:09.812Z,43.89
2023-05-02T11:41:09.811Z,43.92
2023-05-02T11:42:09.859Z,43.93
2023-05-02T11:43:09.866Z,43.99
2023-05-02T11:44:09.918Z,44.09
2023-05-02T11:45:09.946Z,44.02
2023-05-02T11:46:09.991Z,44.00
2023-05-02T11:47:10.017Z,44.07
2023-05-02T11:48:10.106Z,43.93
2023-05-02T11:49:11.532Z,44.08
2023-05-02T11:50:10.187Z,44.25
2023-05-02T11:51:10.180Z,44.14
2023-05-02T11:52:10.241Z,44.01
2023-05-02T11:53:10.278Z,43.90
2023-05-02T11:54:10.348Z,43.89
2023-05-02T11:55:11.622Z,43.89
2023-05-02T11:56:10.372Z,43.90
2023-05-02T11:57:10.389Z,43.93
2023-05-02T11:58:10.456Z,43.84
2023-05-02T11:59:10.479Z,43.88
2023-05-02T12:00:10.524Z,43.71
2023-05-02T12:01:11.094Z,42.44
2023-05-02T12:02:10.585Z,41.75
2023-05-02T12:03:10.728Z,41.58
2023-05-02T12:04:10.710Z,41.41
2023-05-02T12:05:10.784Z,40.90
2023-05-02T12:06:10.901Z,40.93
2023-05-02T12:07:12.163Z,40.89
2023-05-02T12:08:10.775Z,40.92
2023-05-02T12:09:10.809Z,41.05
2023-05-02T12:10:11.049Z,41.08
2023-05-02T12:11:10.807Z,41.09
2023-05-02T12:12:10.808Z,41.19
2023-05-02T12:13:11.899Z,41.52
2023-05-02T12:14:10.896Z,41.69
2023-05-02T12:15:10.933Z,41.87
2023-05-02T12:16:11.053Z,42.10
2023-05-02T12:17:10.957Z,42.30
2023-05-02T12:18:11.010Z,42.21
2023-05-02T12:19:11.010Z,42.36
2023-05-02T12:20:11.059Z,42.79
2023-05-02T12:21:11.031Z,42.78
2023-05-02T12:22:11.036Z,42.96
2023-05-02T12:23:11.015Z,43.03
2023-05-02T12:24:11.101Z,43.06
2023-05-02T12:25:11.097Z,43.02
2023-05-02T12:26:11.097Z,42.87
2023-05-02T12:27:11.079Z,42.79
2023-05-02T12:28:11.112Z,42.88
2023-05-02T12:29:11.139Z,42.85
2023-05-02T12:30:11.143Z,42.55
2023-05-02T12:31:11.225Z,42.32
2023-05-02T12:32:11.141Z,42.36
2023-05-02T12:33:11.177Z,42.23
2023-05-02T12:34:11.168Z,42.20
2023-05-02T12:35:11.198Z,42.11
2023-05-02T12:36:11.230Z,42.11
2023-05-02T12:37:11.234Z,42.10
2023-05-02T12:38:11.272Z,41.91
2023-05-02T12:39:11.293Z,41.56
2023-05-02T12:40:11.346Z,41.46
2023-05-02T12:41:11.398Z,41.25
2023-05-02T12:42:11.435Z,41.13
2023-05-02T12:43:11.457Z,40.75
2023-05-02T12:44:11.540Z,40.66
2023-05-02T12:45:11.566Z,40.40
2023-05-02T12:46:11.623Z,40.15
2023-05-02T12:47:11.692Z,39.98
2023-05-02T12:48:11.741Z,39.86
2023-05-02T12:49:11.756Z,39.79
2023-05-02T12:50:11.829Z,39.41
2023-05-02T12:51:11.865Z,39.29
2023-05-02T12:52:11.859Z,39.31
2023-05-02T12:53:11.891Z,39.38